createdAt,value
2022-08-07T00:02:36.315Z,86.30
2022-08-07T00:05:01.329Z,86.90
2022-08-07T00:07:40.189Z,87.20
2022-08-07T00:10:27.185Z,87.10
2022-08-07T00:13:01.186Z,87.60
2022-08-07T00:15:38.383Z,87.70
2022-08-07T00:18:19.319Z,88.30
2022-08-07T00:20:57.534Z,88.60
2022-08-07T00:23:30.768Z,88.90
2022-08-07T00:26:06.942Z,88.80
2022-08-07T00:28:56.421Z,89.50
2022-08-07T00:31:37.274Z,89.10
2022-08-07T00:34:08.970Z,89.80
2022-08-07T00:36:42.950Z,90.10
2022-08-07T00:39:16.982Z,90.10
2022-08-07T00:42:01.419Z,90.30
2022-08-07T00:47:02.728Z,90.60
2022-08-07T00:50:20.545Z,90.90
2022-08-07T00:52:20.016Z,91.00
2022-08-07T00:54:53.742Z,90.90
2022-08-07T00:57:26.303Z,91.10
2022-08-07T00:59:54.607Z,91.00
2022-08-07T01:02:28.930Z,91.20
2022-08-07T01:04:59.280Z,91.30
2022-08-07T01:07:29.620Z,91.50
2022-08-07T01:10:06.946Z,91.60
2022-08-07T01:12:53.417Z,91.70
2022-08-07T01:16:01.016Z,91.80
2022-08-07T01:18:17.074Z,91.90
2022-08-07T01:20:59.703Z,92.10
2022-08-07T01:23:36.724Z,92.30
2022-08-07T01:26:13.583Z,92.40
2022-08-07T01:28:49.104Z,92.50
2022-08-07T01:31:27.933Z,92.70
2022-08-07T01:34:12.166Z,93.00
2022-08-07T01:36:44.214Z,93.00
2022-08-07T01:39:16.394Z,93.20
2022-08-07T01:44:39.699Z,93.50
2022-08-07T01:48:18.533Z,93.60
2022-08-07T01:49:56.545Z,93.90
2022-08-07T01:52:30.075Z,93.90
2022-08-07T01:55:02.081Z,94.00
2022-08-07T01:58:05.494Z,94.20
2022-08-07T02:00:31.332Z,94.30
2022-08-07T02:03:18.503Z,94.60
2022-08-07T02:06:00.803Z,94.70
2022-08-07T02:08:39.195Z,94.80
2022-08-07T02:12:03.391Z,94.90
2022-08-07T02:14:04.109Z,95.10
2022-08-07T02:16:37.708Z,95.10
2022-08-07T02:20:04.403Z,95.20
2022-08-07T02:21:59.724Z,95.60
2022-08-07T02:24:30.026Z,95.50
2022-08-07T02:27:01.358Z,95.60
2022-08-07T02:29:32.569Z,95.80
2022-08-07T02:32:06.173Z,95.80
2022-08-07T02:34:48.889Z,95.70
2022-08-07T02:37:22.285Z,96.10
2022-08-07T02:40:02.366Z,95.00
2022-08-07T02:42:39.387Z,96.00
2022-08-07T02:45:58.749Z,96.20
2022-08-07T02:47:59.203Z,96.30
2022-08-07T02:50:34.339Z,96.60
2022-08-07T02:53:10.843Z,96.60
2022-08-07T02:56:03.014Z,96.70
2022-08-07T02:58:37.246Z,96.60
2022-08-07T03:01:18.600Z,96.70
2022-08-07T03:03:49.985Z,96.90
2022-08-07T03:06:26.222Z,96.20
2022-08-07T03:09:07.702Z,97.10
2022-08-07T03:11:52.158Z,97.30
2022-08-07T03:14:28.536Z,97.40
2022-08-07T03:16:57.723Z,97.50
2022-08-07T03:19:28.914Z,97.60
2022-08-07T03:21:59.327Z,97.70
2022-08-07T03:24:28.240Z,98.00
2022-08-07T03:27:03.195Z,97.90
2022-08-07T03:29:50.488Z,98.10
2022-08-07T03:32:31.384Z,98.10
2022-08-07T03:35:17.639Z,98.30
2022-08-07T03:37:54.952Z,98.30
2022-08-07T03:40:31.166Z,98.40
2022-08-07T03:43:13.629Z,98.60
2022-08-07T03:48:18.705Z,98.60
2022-08-07T03:50:56.054Z,98.70
2022-08-07T03:54:00.692Z,98.80
2022-08-07T03:56:33.509Z,98.90
2022-08-07T03:59:12.821Z,99.00
2022-08-07T04:01:46.135Z,99.10
2022-08-07T04:04:18.172Z,99.20
2022-08-07T04:06:51.752Z,99.20
2022-08-07T04:09:23.217Z,99.30
2022-08-07T04:12:27.062Z,99.40
2022-08-07T04:14:49.024Z,99.50
2022-08-07T04:17:20.921Z,99.50
2022-08-07T04:19:55.422Z,99.60
2022-08-07T04:22:27.517Z,99.70
2022-08-07T04:25:01.172Z,99.80
2022-08-07T04:27:35.544Z,99.90
2022-08-07T04:30:20.949Z,99.90
2022-08-07T04:33:00.634Z,99.90
2022-08-07T04:35:35.486Z,99.90
2022-08-07T04:38:13.155Z,99.90
2022-08-07T04:40:52.979Z,99.90
2022-08-07T04:44:10.063Z,99.90
2022-08-07T04:47:04.813Z,99.90
2022-08-07T04:49:57.734Z,99.90
2022-08-07T04:52:51.259Z,99.90
2022-08-07T04:58:15.262Z,99.90
2022-08-07T04:59:01.561Z,99.90
2022-08-07T05:01:37.479Z,99.90
2022-08-07T05:04:22.446Z,99.90
2022-08-07T05:07:20.278Z,99.90
2022-08-07T05:10:07.935Z,99.90
2022-08-07T05:12:53.133Z,99.90
2022-08-07T05:15:31.258Z,99.90
2022-08-07T05:18:08.527Z,99.90
2022-08-07T05:20:45.945Z,99.90
2022-08-07T05:23:19.817Z,99.90
2022-08-07T05:26:13.563Z,99.90
2022-08-07T05:28:40.967Z,99.90
2022-08-07T05:31:19.408Z,99.90
2022-08-07T05:34:01.398Z,99.90
2022-08-07T05:36:39.095Z,99.90
2022-08-07T05:40:13.675Z,99.90
2022-08-07T05:42:06.344Z,99.90
2022-08-07T05:44:46.487Z,99.90
2022-08-07T05:47:38.177Z,99.90
2022-08-07T05:50:10.221Z,99.90
2022-08-07T05:52:38.143Z,99.90
2022-08-07T05:55:10.827Z,99.90
2022-08-07T05:57:44.921Z,99.90
2022-08-07T06:00:16.456Z,99.90
2022-08-07T06:02:53.132Z,99.90
2022-08-07T06:05:28.298Z,99.90
2022-08-07T06:08:05.398Z,99.90
2022-08-07T06:10:44.743Z,99.90
2022-08-07T06:13:15.522Z,99.90
2022-08-07T06:15:45.777Z,99.90
2022-08-07T06:18:24.970Z,99.90
2022-08-07T06:22:16.206Z,99.90
2022-08-07T06:24:37.100Z,99.90
2022-08-07T06:26:33.443Z,99.90
2022-08-07T06:29:04.105Z,99.90
2022-08-07T06:31:46.909Z,99.80
2022-08-07T06:34:25.219Z,99.40
2022-08-07T06:36:58.898Z,99.90
2022-08-07T06:40:15.817Z,99.40
2022-08-07T06:42:37.486Z,99.20
2022-08-07T06:45:28.531Z,99.00
2022-08-07T06:48:00.145Z,98.10
2022-08-07T06:50:49.703Z,98.30
2022-08-07T06:55:28.350Z,98.10
2022-08-07T06:56:38.207Z,97.10
2022-08-07T07:00:13.187Z,97.30
2022-08-07T07:02:49.321Z,97.10
2022-08-07T07:05:13.291Z,96.40
2022-08-07T07:08:06.405Z,95.60
2022-08-07T07:10:36.228Z,95.30
2022-08-07T07:13:55.508Z,94.40
2022-08-07T07:16:21.962Z,93.20
2022-08-07T07:18:57.803Z,93.10
2022-08-07T07:21:40.532Z,92.70
2022-08-07T07:24:18.048Z,92.30
2022-08-07T07:26:51.756Z,92.30
2022-08-07T07:29:56.806Z,91.70
2022-08-07T07:32:15.019Z,90.10
2022-08-07T07:34:48.626Z,90.20
2022-08-07T07:37:45.281Z,87.90
2022-08-07T07:40:15.243Z,88.90
2022-08-07T07:42:47.040Z,86.50
2022-08-07T07:45:24.593Z,86.70
2022-08-07T07:48:12.938Z,85.50
2022-08-07T07:51:02.841Z,87.40
2022-08-07T07:53:44.918Z,83.70
2022-08-07T07:56:30.036Z,84.10
2022-08-07T07:59:06.064Z,84.80
2022-08-07T08:02:03.465Z,82.80
2022-08-07T08:04:26.260Z,81.50
2022-08-07T08:06:56.193Z,81.40
2022-08-07T08:09:29.113Z,82.10
2022-08-07T08:12:02.962Z,81.00
2022-08-07T08:14:34.218Z,81.90
2022-08-07T08:17:55.801Z,81.60
2022-08-07T08:20:18.591Z,80.20
2022-08-07T08:23:10.188Z,80.10
2022-08-07T08:26:03.420Z,79.40
2022-08-07T08:28:48.274Z,79.40
2022-08-07T08:31:30.108Z,79.00
2022-08-07T08:34:27.107Z,79.40
2022-08-07T08:36:58.633Z,80.40
2022-08-07T08:39:39.709Z,78.10
2022-08-07T08:42:15.293Z,78.20
2022-08-07T08:45:41.552Z,78.90
2022-08-07T08:48:38.339Z,78.80
2022-08-07T08:51:49.386Z,79.10
2022-08-07T08:54:29.937Z,78.70
2022-08-07T08:57:02.342Z,78.70
2022-08-07T08:59:48.578Z,78.10
2022-08-07T09:02:40.284Z,77.50
2022-08-07T09:05:32.073Z,76.70
2022-08-07T09:08:35.813Z,76.60
2022-08-07T09:11:50.522Z,77.10
2022-08-07T09:14:29.802Z,76.50
2022-08-07T09:17:00.575Z,77.00
2022-08-07T09:19:55.016Z,77.10
2022-08-07T09:24:52.592Z,76.30
2022-08-07T09:25:32.713Z,76.10
2022-08-07T09:30:02.041Z,76.70
2022-08-07T09:31:25.577Z,75.70
2022-08-07T09:34:21.562Z,74.30
2022-08-07T09:37:00.616Z,73.40
2022-08-07T09:39:55.488Z,74.20
2022-08-07T09:42:33.683Z,71.40
2022-08-07T09:47:24.928Z,72.80
2022-08-07T09:50:00.531Z,72.80
2022-08-07T09:52:10.080Z,72.00
2022-08-07T10:03:07.893Z,67.60
2022-08-07T10:05:59.787Z,67.50
2022-08-07T10:08:57.733Z,66.10
2022-08-07T10:12:21.494Z,67.40
2022-08-07T10:15:08.580Z,64.50
2022-08-07T10:18:26.610Z,65.70
2022-08-07T10:22:12.196Z,65.00
2022-08-07T10:24:29.727Z,64.60
2022-08-07T10:27:30.132Z,63.30
2022-08-07T10:30:36.384Z,63.70
2022-08-07T10:34:06.525Z,62.50
2022-08-07T10:36:45.685Z,60.50
2022-08-07T10:40:02.999Z,62.10
2022-08-07T10:42:37.089Z,61.40
2022-08-07T10:45:57.823Z,62.40
2022-08-07T10:48:55.436Z,61.30
2022-08-07T10:51:39.485Z,62.00
2022-08-07T10:54:53.134Z,61.30
2022-08-07T10:57:46.587Z,61.30
2022-08-07T11:00:43.008Z,61.30
2022-08-07T11:03:55.167Z,61.10
2022-08-07T11:07:00.844Z,61.30
2022-08-07T11:10:10.259Z,60.00
2022-08-07T11:12:43.512Z,60.80
2022-08-07T11:15:20.576Z,60.10
2022-08-07T11:17:56.910Z,59.50
2022-08-07T11:20:41.927Z,59.70
2022-08-07T11:23:30.241Z,60.00
2022-08-07T11:26:32.003Z,60.00
2022-08-07T11:29:13.229Z,59.30
2022-08-07T11:32:35.952Z,59.80
2022-08-07T11:35:25.330Z,59.80
2022-08-07T11:38:10.244Z,59.80
2022-08-07T11:40:49.619Z,59.60
2022-08-07T11:43:41.382Z,59.40
2022-08-07T11:46:39.097Z,59.50
2022-08-07T11:49:50.389Z,59.10
2022-08-07T11:52:39.856Z,59.20
2022-08-07T11:55:19.026Z,58.60
2022-08-07T11:58:17.385Z,59.10
2022-08-07T12:01:02.472Z,59.30
2022-08-07T12:03:57.778Z,59.70
2022-08-07T12:06:57.242Z,59.00
2022-08-07T12:09:55.528Z,59.30
2022-08-07T12:12:33.142Z,59.20
2022-08-07T12:15:17.333Z,58.70
2022-08-07T12:18:29.639Z,58.10
2022-08-07T12:22:35.741Z,58.20
2022-08-07T12:24:40.227Z,58.20
2022-08-07T12:27:16.144Z,56.80
2022-08-07T12:30:08.923Z,57.50
2022-08-07T12:33:28.252Z,57.40
2022-08-07T12:36:02.270Z,57.60
2022-08-07T12:38:42.492Z,56.90
2022-08-07T12:41:12.900Z,56.90
2022-08-07T12:44:04.181Z,56.70
2022-08-07T12:46:40.293Z,57.40
2022-08-07T12:49:25.512Z,56.90
2022-08-07T12:52:18.086Z,57.20
2022-08-07T12:55:05.541Z,55.70
2022-08-07T12:58:00.283Z,56.10
2022-08-07T13:00:49.788Z,56.10
2022-08-07T13:04:03.092Z,56.30
2022-08-07T13:06:54.424Z,56.60
2022-08-07T13:10:18.985Z,56.50
2022-08-07T13:13:09.817Z,55.80
2022-08-07T13:16:05.403Z,55.90
2022-08-07T13:18:58.687Z,56.00
2022-08-07T13:21:57.384Z,55.40
2022-08-07T13:24:33.931Z,55.80
2022-08-07T13:27:24.972Z,55.40
2022-08-07T13:30:19.741Z,55.20
2022-08-07T13:34:31.693Z,54.80
2022-08-07T13:36:26.611Z,55.50
2022-08-07T13:39:28.186Z,54.50
2022-08-07T13:41:57.674Z,55.00
2022-08-07T13:44:34.479Z,54.90
2022-08-07T13:47:09.375Z,54.40
2022-08-07T13:50:32.784Z,53.60
2022-08-07T13:52:40.939Z,53.20
2022-08-07T13:55:19.713Z,52.50
2022-08-07T13:58:27.633Z,50.60
2022-08-07T14:01:08.785Z,50.20
2022-08-07T14:04:06.929Z,49.90
2022-08-07T14:06:34.350Z,50.10
2022-08-07T14:09:05.033Z,49.80
2022-08-07T14:12:00.385Z,50.10
2022-08-07T14:14:33.194Z,50.10
2022-08-07T14:17:32.366Z,47.80
2022-08-07T14:20:41.675Z,48.10
2022-08-07T14:23:01.812Z,47.30
2022-08-07T14:25:39.264Z,46.80
2022-08-07T14:28:17.178Z,47.20
2022-08-07T14:30:52.030Z,45.50
2022-08-07T14:33:23.353Z,45.20
2022-08-07T14:35:58.626Z,44.80
2022-08-07T14:38:31.240Z,44.00
2022-08-07T14:41:05.176Z,44.90
2022-08-07T14:43:58.029Z,45.00
2022-08-07T14:46:30.638Z,44.50
2022-08-07T14:49:17.661Z,43.70
2022-08-07T14:57:58.631Z,44.60
2022-08-07T15:00:30.411Z,44.30
2022-08-07T15:03:17.482Z,43.40
2022-08-07T15:05:54.790Z,44.10
2022-08-07T15:08:49.757Z,44.00
2022-08-07T15:11:53.481Z,45.00
2022-08-07T15:14:22.745Z,45.50
2022-08-07T15:17:04.377Z,46.30
2022-08-07T15:20:30.309Z,47.00
2022-08-07T15:22:33.485Z,47.40
2022-08-07T15:25:17.615Z,47.70
2022-08-07T15:28:32.805Z,47.30
2022-08-07T15:30:59.435Z,48.20
2022-08-07T15:33:34.029Z,48.30
2022-08-07T15:36:07.995Z,49.00
2022-08-07T15:38:58.841Z,49.20
2022-08-07T15:42:46.570Z,49.70
2022-08-07T15:44:20.838Z,50.00
2022-08-07T15:46:58.595Z,50.20
2022-08-07T15:50:04.196Z,50.70
2022-08-07T15:52:30.172Z,51.10
2022-08-07T15:55:03.835Z,51.20
2022-08-07T15:57:47.693Z,51.10
2022-08-07T16:00:31.259Z,51.20
2022-08-07T16:03:21.372Z,51.40
2022-08-07T16:06:00.604Z,51.80
2022-08-07T16:08:38.505Z,51.30
2022-08-07T16:11:27.265Z,51.80
2022-08-07T16:14:28.949Z,51.90
2022-08-07T16:18:02.526Z,52.00
2022-08-07T16:20:42.724Z,52.40
2022-08-07T16:23:53.985Z,52.50
2022-08-07T16:26:31.244Z,52.30
2022-08-07T16:30:06.570Z,52.30
2022-08-07T16:32:33.245Z,53.10
2022-08-07T16:35:56.506Z,53.00
2022-08-07T16:39:01.303Z,52.60
2022-08-07T16:42:03.994Z,53.20
2022-08-07T16:45:24.732Z,53.40
2022-08-07T16:47:56.393Z,53.10
2022-08-07T16:51:22.670Z,52.70
2022-08-07T16:54:10.745Z,53.60
2022-08-07T16:57:06.674Z,53.30
2022-08-07T17:00:03.993Z,52.90
2022-08-07T17:03:04.860Z,53.40
2022-08-07T17:06:18.855Z,53.40
2022-08-07T17:09:10.924Z,53.40
2022-08-07T17:12:33.509Z,53.60
2022-08-07T17:15:00.219Z,53.10
2022-08-07T17:17:44.289Z,53.40
2022-08-07T17:20:21.567Z,53.30
2022-08-07T17:23:19.457Z,53.00
2022-08-07T17:25:52.426Z,53.20
2022-08-07T17:28:31.510Z,53.70
2022-08-07T17:31:15.789Z,53.80
2022-08-07T17:34:19.854Z,53.70
2022-08-07T17:37:08.820Z,53.40
2022-08-07T17:40:03.340Z,53.40
2022-08-07T17:42:35.863Z,53.50
2022-08-07T17:45:57.262Z,52.80
2022-08-07T17:48:31.171Z,53.40
2022-08-07T17:51:14.549Z,53.10
2022-08-07T17:54:12.595Z,52.60
2022-08-07T17:56:49.737Z,52.30
2022-08-07T17:59:35.782Z,52.80
2022-08-07T18:02:24.993Z,52.20
2022-08-07T18:06:01.333Z,52.60
2022-08-07T18:08:31.091Z,52.10
2022-08-07T18:12:17.545Z,52.30
2022-08-07T18:14:46.076Z,52.20
2022-08-07T18:18:47.543Z,52.00
2022-08-07T18:21:37.068Z,52.10
2022-08-07T18:24:07.683Z,51.60
2022-08-07T18:26:40.506Z,52.10
2022-08-07T18:30:04.329Z,51.60
2022-08-07T18:32:17.197Z,52.10
2022-08-07T18:35:01.557Z,52.10
2022-08-07T18:38:56.529Z,52.20
2022-08-07T18:40:53.889Z,52.00
2022-08-07T18:44:10.213Z,51.60
2022-08-07T18:46:47.674Z,51.70
2022-08-07T18:50:32.458Z,52.00
2022-08-07T18:52:56.562Z,51.70
2022-08-07T18:55:56.135Z,51.80
2022-08-07T18:58:33.250Z,52.40
2022-08-07T19:02:19.191Z,52.50
2022-08-07T19:04:29.768Z,52.50
2022-08-07T19:07:34.489Z,53.10
2022-08-07T19:10:12.119Z,52.00
2022-08-07T19:13:12.038Z,52.60
2022-08-07T19:17:07.005Z,52.50
2022-08-07T19:19:42.950Z,52.60
2022-08-07T19:22:31.095Z,52.20
2022-08-07T19:25:05.462Z,53.00
2022-08-07T19:28:58.667Z,52.50
2022-08-07T19:31:00.406Z,53.20
2022-08-07T19:33:34.615Z,53.30
2022-08-07T19:36:04.058Z,52.90
2022-08-07T19:38:35.198Z,53.60
2022-08-07T19:41:44.547Z,53.30
2022-08-07T19:44:41.111Z,53.30
2022-08-07T19:47:16.236Z,54.00
2022-08-07T19:49:58.454Z,54.60
2022-08-07T19:52:31.922Z,53.90
2022-08-07T19:58:01.975Z,54.10
2022-08-07T20:00:31.586Z,54.20
2022-08-07T20:03:31.352Z,54.70
2022-08-07T20:06:00.746Z,54.90
2022-08-07T20:08:42.212Z,55.10
2022-08-07T20:12:00.807Z,54.80
2022-08-07T20:14:20.579Z,55.50
2022-08-07T20:16:54.369Z,55.60
2022-08-07T20:19:28.905Z,57.00
2022-08-07T20:22:28.949Z,57.50
2022-08-07T20:25:06.106Z,57.60
2022-08-07T20:27:47.709Z,57.90
2022-08-07T20:30:22.540Z,58.20
2022-08-07T20:32:54.858Z,58.50
2022-08-07T20:35:34.774Z,58.50
2022-08-07T20:38:21.802Z,58.80
2022-08-07T20:40:56.361Z,59.60
2022-08-07T20:43:26.041Z,59.30
2022-08-07T20:46:28.389Z,59.40
2022-08-07T20:49:54.450Z,60.30
2022-08-07T20:51:35.932Z,60.60
2022-08-07T20:54:15.211Z,60.80
2022-08-07T20:56:59.509Z,61.20
2022-08-07T21:00:07.361Z,61.00
2022-08-07T21:02:39.327Z,62.20
2022-08-07T21:05:16.643Z,62.90
2022-08-07T21:07:48.913Z,63.40
2022-08-07T21:10:31.335Z,65.10
2022-08-07T21:13:03.206Z,65.30
2022-08-07T21:15:47.622Z,66.20
2022-08-07T21:18:27.862Z,66.30
2022-08-07T21:20:59.451Z,67.40
2022-08-07T21:23:50.103Z,67.10
2022-08-07T21:26:43.101Z,67.50
2022-08-07T21:29:18.709Z,68.00
2022-08-07T21:32:43.646Z,68.50
2022-08-07T21:35:01.630Z,68.90
2022-08-07T21:37:58.636Z,69.10
2022-08-07T21:40:48.190Z,69.30
2022-08-07T21:43:23.107Z,69.90
2022-08-07T21:46:10.050Z,69.50
2022-08-07T21:49:15.133Z,70.70
2022-08-07T21:52:00.212Z,71.10
2022-08-07T21:54:39.080Z,70.80
2022-08-07T21:57:39.893Z,71.70
2022-08-07T22:00:22.470Z,71.60
2022-08-07T22:03:17.413Z,72.50
2022-08-07T22:06:06.402Z,71.90
2022-08-07T22:08:43.590Z,72.20
2022-08-07T22:11:17.589Z,73.10
2022-08-07T22:13:52.555Z,73.40
2022-08-07T22:16:38.653Z,73.10
2022-08-07T22:19:29.616Z,74.20
2022-08-07T22:22:21.472Z,74.30
2022-08-07T22:25:08.713Z,73.90
2022-08-07T22:28:30.130Z,74.20
2022-08-07T22:30:36.765Z,75.10
2022-08-07T22:33:09.517Z,75.30
2022-08-07T22:35:57.276Z,75.50
2022-08-07T22:38:56.685Z,76.20
2022-08-07T22:42:03.697Z,76.50
2022-08-07T22:44:57.871Z,76.00
2022-08-07T22:47:33.070Z,76.80
2022-08-07T22:50:47.298Z,77.20
2022-08-07T22:54:05.466Z,77.20
2022-08-07T22:56:57.967Z,78.20
2022-08-07T23:00:07.457Z,77.90
2022-08-07T23:02:44.492Z,78.20
2022-08-07T23:06:09.166Z,79.10
2022-08-07T23:10:04.525Z,79.00
2022-08-07T23:12:34.012Z,80.30
2022-08-07T23:16:06.386Z,80.40
2022-08-07T23:19:11.391Z,80.80
2022-08-07T23:22:21.465Z,81.00
2022-08-07T23:24:53.033Z,80.90
2022-08-07T23:28:21.548Z,81.00
2022-08-07T23:31:06.598Z,81.90
2022-08-07T23:34:33.726Z,81.80
2022-08-07T23:37:18.939Z,82.50
2022-08-07T23:40:00.875Z,82.50
2022-08-07T23:42:34.487Z,82.80
2022-08-07T23:45:33.034Z,83.90
2022-08-07T23:48:53.166Z,84.10
2022-08-07T23:53:01.105Z,84.40
2022-08-07T23:54:57.000Z,84.80
2022-08-07T23:57:24.615Z,85.20
